Time;durP1;ratioP1;P1;durP2;ratioP2;P2;SDS_P1;SDS_P2;PMS_P1;PMS_P2;Temp;Humidity;BMP_temperature;BMP_pressure;BME280_temperature;BME280_humidity;BME280_pressure;Samples;Min_cycle;Max_cycle;Signal;HPM_P1;HPM_P2
2022/12/24 00:01:17;;;;;;;;;;;;;;;11.31;100.00;100185.28;7354832;19;19927;-67
2022/12/24 00:03:44;;;;;;;;;;;;;;;11.33;100.00;100170.94;7355102;19;20395;-68
2022/12/24 00:06:15;;;;;;;;;;;;;;;11.33;100.00;100184.09;7351617;19;19983;-67
2022/12/24 00:08:42;;;;;;;;;;;;;;;11.36;100.00;100190.84;7353412;19;19914;-68
2022/12/24 00:11:08;;;;;;;;;;;;;;;11.35;100.00;100190.03;7355964;19;19923;-67
2022/12/24 00:13:35;;;;;;;;;;;;;;;11.37;99.96;100205.66;7354221;19;19933;-67
2022/12/24 00:16:03;;;;;;;;;;;;;;;11.37;99.77;100205.66;7354264;19;19927;-67
2022/12/24 00:18:30;;;;;;;;;;;;;;;11.38;99.91;100213.38;7354167;19;19937;-67
2022/12/24 00:20:57;;;;;;;;;;;;;;;11.37;99.96;100206.50;7351174;19;20359;-67
2022/12/24 00:23:23;;;;;;;;;;;;;;;11.39;99.86;100211.56;7354570;19;19969;-67
2022/12/24 00:25:50;;;;;;;;;;;;;;;11.40;99.97;100214.03;7356280;19;19926;-68
2022/12/24 00:28:17;;;;;;;;;;;;;;;11.41;99.86;100215.69;7354274;19;19926;-67
2022/12/24 00:30:44;;;;;;;;;;;;;;;11.40;99.77;100214.03;7355615;19;19935;-68
2022/12/24 00:33:11;;;;;;;;;;;;;;;11.44;99.66;100227.66;7354334;19;20727;-66
2022/12/24 00:35:38;;;;;;;;;;;;;;;11.43;99.63;100224.22;7353429;19;20006;-68
2022/12/24 00:38:05;;;;;;;;;;;;;;;11.44;99.35;100228.50;7353691;19;20367;-68
2022/12/24 00:40:33;;;;;;;;;;;;;;;11.45;99.27;100235.41;7351478;19;19922;-68
2022/12/24 00:42:59;;;;;;;;;;;;;;;11.47;99.15;100230.78;7353947;19;20002;-69
2022/12/24 00:45:26;;;;;;;;;;;;;;;11.46;99.15;100231.78;7354803;19;20349;-67
2022/12/24 00:47:53;;;;;;;;;;;;;;;11.44;98.97;100230.31;7353604;19;19966;-67
2022/12/24 00:50:20;;;;;;;;;;;;;;;11.45;98.88;100238.03;7350942;19;20002;-67
2022/12/24 00:52:47;;;;;;;;;;;;;;;11.45;98.47;100245.94;7351053;19;19927;-68
2022/12/24 00:55:14;;;;;;;;;;;;;;;11.45;98.90;100243.31;7352286;19;21144;-67
2022/12/24 00:57:40;;;;;;;;;;;;;;;11.47;98.89;100240.50;7356056;19;19933;-67
2022/12/24 01:00:08;;;;;;;;;;;;;;;11.46;98.91;100241.50;7355240;19;19923;-67
2022/12/24 01:02:34;;;;;;;;;;;;;;;11.43;98.36;100244.47;7353674;19;19957;-67
2022/12/24 01:07:39;;;;;;;;;;;;;;;11.40;98.37;100261.44;7352864;19;19919;-67
2022/12/24 01:10:06;;;;;;;;;;;;;;;11.36;98.22;100268.06;7353895;19;19919;-67
2022/12/24 01:12:33;;;;;;;;;;;;;;;11.34;98.15;100269.19;7352837;19;19922;-68
2022/12/24 01:15:00;;;;;;;;;;;;;;;11.34;98.43;100263.94;7354895;19;19915;-67
2022/12/24 01:17:27;;;;;;;;;;;;;;;11.36;99.13;100259.31;7354713;19;19926;-68
2022/12/24 01:19:54;;;;;;;;;;;;;;;11.33;98.69;100270.19;7351117;19;19919;-67
2022/12/24 01:22:20;;;;;;;;;;;;;;;11.31;98.75;100267.75;7352139;19;20576;-67
2022/12/24 01:24:47;;;;;;;;;;;;;;;11.32;99.33;100284.38;7354016;19;19919;-66
2022/12/24 01:27:14;;;;;;;;;;;;;;;11.32;99.44;100274.66;7351409;19;20025;-67
2022/12/24 01:29:40;;;;;;;;;;;;;;;11.31;99.47;100280.91;7352548;19;19951;-68
2022/12/24 01:32:07;;;;;;;;;;;;;;;11.32;99.49;100285.19;7353386;19;19927;-68
2022/12/24 01:34:35;;;;;;;;;;;;;;;11.32;99.84;100276.47;7352765;19;19937;-68
2022/12/24 01:37:02;;;;;;;;;;;;;;;11.31;99.74;100283.56;7349032;19;19964;-67
2022/12/24 01:39:29;;;;;;;;;;;;;;;11.30;99.65;100295.06;7358517;19;19939;-68
2022/12/24 01:44:33;;;;;;;;;;;;;;;11.26;99.78;100290.31;7359930;19;19919;-67
2022/12/24 01:47:06;;;;;;;;;;;;;;;11.22;99.44;100289.03;7359021;19;19922;-67
2022/12/24 01:49:33;;;;;;;;;;;;;;;11.19;99.32;100298.06;7359922;19;19915;-67
2022/12/24 01:52:02;;;;;;;;;;;;;;;11.18;99.38;100298.22;7357954;19;19914;-67
2022/12/24 01:54:31;;;;;;;;;;;;;;;11.19;99.18;100300.69;7359444;19;19910;-67
2022/12/24 01:57:08;;;;;;;;;;;;;;;11.22;99.24;100312.72;7358620;19;20067;-67
2022/12/24 01:59:36;;;;;;;;;;;;;;;11.21;99.14;100311.91;7358827;19;20315;-67
2022/12/24 02:02:03;;;;;;;;;;;;;;;11.21;99.56;100309.25;7357345;19;20292;-67
2022/12/24 02:04:40;;;;;;;;;;;;;;;11.21;99.62;100321.59;7361023;19;19933;-67
2022/12/24 02:07:06;;;;;;;;;;;;;;;11.17;99.26;100326.41;7353004;19;19953;-67
2022/12/24 02:09:34;;;;;;;;;;;;;;;11.13;99.56;100327.69;7357257;19;21036;-67
2022/12/24 02:12:01;;;;;;;;;;;;;;;11.14;99.29;100330.19;7359849;19;19918;-67
2022/12/24 02:14:31;;;;;;;;;;;;;;;11.14;99.45;100324.09;7358930;19;20404;-67
2022/12/24 02:16:57;;;;;;;;;;;;;;;11.14;99.78;100322.28;7360971;19;20397;-67
2022/12/24 02:19:34;;;;;;;;;;;;;;;11.13;99.99;100328.53;7358361;19;19937;-68
2022/12/24 02:22:02;;;;;;;;;;;;;;;11.10;99.41;100320.16;7352192;19;19922;-68
2022/12/24 02:24:30;;;;;;;;;;;;;;;11.07;99.57;100329.19;7360041;19;19923;-68
2022/12/24 02:27:00;;;;;;;;;;;;;;;11.06;99.41;100327.56;7355224;19;19927;-66
2022/12/24 02:29:36;;;;;;;;;;;;;;;11.06;99.42;100334.66;7359438;19;20335;-67
2022/12/24 02:32:09;;;;;;;;;;;;;;;11.05;99.25;100327.72;7356879;19;19919;-67
2022/12/24 02:34:36;;;;;;;;;;;;;;;11.06;99.46;100334.66;7359411;19;20248;-67
2022/12/24 02:37:09;;;;;;;;;;;;;;;11.09;99.66;100334.31;7357184;19;20295;-66
2022/12/24 02:39:43;;;;;;;;;;;;;;;11.07;99.43;100331.81;7359499;19;19959;-68
2022/12/24 02:42:12;;;;;;;;;;;;;;;11.07;99.57;100326.56;7356175;19;19918;-67
2022/12/24 02:44:44;;;;;;;;;;;;;;;11.06;99.39;100322.31;7356504;19;19927;-67
2022/12/24 02:47:13;;;;;;;;;;;;;;;11.07;99.38;100331.03;7361254;19;19926;-68
2022/12/24 02:49:43;;;;;;;;;;;;;;;11.07;99.69;100333.66;7356608;19;19923;-66
2022/12/24 02:52:19;;;;;;;;;;;;;;;11.05;99.42;100338.25;7353790;19;20451;-67
2022/12/24 02:54:46;;;;;;;;;;;;;;;11.03;99.51;100332.34;7358542;19;20492;-67
2022/12/24 02:57:21;;;;;;;;;;;;;;;11.04;99.79;100334.81;7355913;19;20050;-67
2022/12/24 02:59:49;;;;;;;;;;;;;;;11.04;99.42;100333.97;7356657;19;19938;-67
2022/12/24 03:02:26;;;;;;;;;;;;;;;11.03;99.41;100335.78;7357106;19;20528;-68
2022/12/24 03:05:01;;;;;;;;;;;;;;;11.06;99.76;100346.00;7357787;19;20366;-68
2022/12/24 03:07:31;;;;;;;;;;;;;;;11.07;99.96;100346.84;7357296;19;20317;-66
2022/12/24 03:10:08;;;;;;;;;;;;;;;11.04;99.53;100353.25;7353166;19;20388;-67
2022/12/24 03:12:37;;;;;;;;;;;;;;;11.03;99.63;100348.13;7341057;19;20700;-67
2022/12/24 03:15:10;;;;;;;;;;;;;;;11.01;99.48;100352.75;7349229;19;19922;-68
2022/12/24 03:17:38;;;;;;;;;;;;;;;10.99;99.42;100346.81;7354787;19;19926;-68
2022/12/24 03:20:07;;;;;;;;;;;;;;;10.98;99.68;100350.44;7351787;19;19922;-68
2022/12/24 03:22:34;;;;;;;;;;;;;;;10.97;99.79;100349.63;7352409;19;20303;-67
2022/12/24 03:25:01;;;;;;;;;;;;;;;10.95;99.58;100348.97;7352673;19;20656;-69
2022/12/24 03:27:29;;;;;;;;;;;;;;;10.95;99.75;100343.72;7356467;19;20108;-67
2022/12/24 03:29:56;;;;;;;;;;;;;;;10.94;99.61;100351.78;7357014;19;19930;-67
2022/12/24 03:32:23;;;;;;;;;;;;;;;10.96;99.78;100347.19;7357683;19;19922;-67
2022/12/24 03:34:50;;;;;;;;;;;;;;;10.97;100.00;100357.50;7354341;19;19937;-67
2022/12/24 03:37:17;;;;;;;;;;;;;;;10.96;99.80;100355.06;7354060;19;20011;-67
2022/12/24 03:39:44;;;;;;;;;;;;;;;10.95;99.55;100356.06;7355379;19;19918;-68
2022/12/24 03:42:10;;;;;;;;;;;;;;;10.91;99.38;100342.41;7354668;19;19919;-66
2022/12/24 03:44:37;;;;;;;;;;;;;;;10.91;99.41;100350.31;7360278;19;19919;-67
2022/12/24 03:47:04;;;;;;;;;;;;;;;10.92;99.85;100364.28;7357770;19;19916;-67
2022/12/24 03:49:36;;;;;;;;;;;;;;;10.89;99.79;100365.44;7359350;19;20940;-68
2022/12/24 03:52:03;;;;;;;;;;;;;;;10.89;100.00;100369.88;7356528;19;19926;-68
2022/12/24 03:54:30;;;;;;;;;;;;;;;10.87;100.00;100372.66;7357433;19;21569;-67
2022/12/24 03:56:57;;;;;;;;;;;;;;;10.88;99.96;100368.22;7358971;19;20843;-67
2022/12/24 03:59:24;;;;;;;;;;;;;;;10.87;100.00;100358.72;7353330;19;19942;-67
2022/12/24 04:01:51;;;;;;;;;;;;;;;10.86;99.93;100355.25;7350516;19;19923;-67
2022/12/24 04:04:18;;;;;;;;;;;;;;;10.85;99.79;100344.88;7355416;19;19926;-68
2022/12/24 04:06:45;;;;;;;;;;;;;;;10.83;100.00;100352.94;7353580;19;19927;-67
2022/12/24 04:09:12;;;;;;;;;;;;;;;10.85;99.53;100358.03;7353650;19;19922;-67
2022/12/24 04:11:38;;;;;;;;;;;;;;;10.85;99.73;100361.50;7356513;19;19934;-67
2022/12/24 04:14:05;;;;;;;;;;;;;;;10.86;99.90;100370.22;7354639;19;19926;-67
2022/12/24 04:16:32;;;;;;;;;;;;;;;10.85;100.00;100372.03;7354189;19;19921;-69
2022/12/24 04:18:59;;;;;;;;;;;;;;;10.84;99.69;100372.19;7358725;19;19921;-68
2022/12/24 04:21:26;;;;;;;;;;;;;;;10.79;99.10;100377.94;7350757;19;19915;-67
2022/12/24 04:23:53;;;;;;;;;;;;;;;10.80;99.27;100379.59;7355988;19;20648;-67
2022/12/24 04:26:20;;;;;;;;;;;;;;;10.81;99.41;100390.94;7354525;19;19926;-67
2022/12/24 04:28:47;;;;;;;;;;;;;;;10.82;99.64;100397.84;7353262;19;19944;-67
2022/12/24 04:31:15;;;;;;;;;;;;;;;10.81;99.87;100409.38;7356112;19;19925;-67
2022/12/24 04:33:42;;;;;;;;;;;;;;;10.82;99.93;100405.75;7353718;19;20376;-68
2022/12/24 04:36:11;;;;;;;;;;;;;;;10.83;100.00;100410.84;7351799;19;19922;-67
2022/12/24 04:38:38;;;;;;;;;;;;;;;10.82;100.00;100413.66;7354133;19;19915;-70
2022/12/24 04:41:06;;;;;;;;;;;;;;;10.81;99.66;100412.00;7354882;19;19937;-66
2022/12/24 04:43:33;;;;;;;;;;;;;;;10.78;99.10;100407.88;7352785;19;19930;-67
2022/12/24 04:46:03;;;;;;;;;;;;;;;10.78;99.11;100412.31;7353373;19;20019;-68
2022/12/24 04:48:30;;;;;;;;;;;;;;;10.76;98.91;100417.75;7353605;19;19943;-68
2022/12/24 04:50:59;;;;;;;;;;;;;;;10.76;98.65;100416.94;7354512;19;19964;-68
2022/12/24 04:53:26;;;;;;;;;;;;;;;10.75;98.44;100426.63;7353884;19;19915;-68
2022/12/24 04:55:53;;;;;;;;;;;;;;;10.72;98.39;100422.50;7355615;19;19930;-67
2022/12/24 04:58:20;;;;;;;;;;;;;;;10.73;98.81;100428.59;7355256;19;20380;-66
2022/12/24 05:00:47;;;;;;;;;;;;;;;10.75;98.69;100433.69;7355095;19;19919;-68
2022/12/24 05:03:13;;;;;;;;;;;;;;;10.71;98.66;100433.22;7355562;19;19919;-67
2022/12/24 05:05:40;;;;;;;;;;;;;;;10.71;98.53;100434.03;7352312;19;20243;-67
2022/12/24 05:08:07;;;;;;;;;;;;;;;10.71;98.33;100438.47;7353731;19;19922;-66
2022/12/24 05:10:34;;;;;;;;;;;;;;;10.72;99.10;100440.09;7354612;19;19919;-68
2022/12/24 05:13:01;;;;;;;;;;;;;;;10.75;99.06;100446.84;7354032;19;19923;-67
2022/12/24 05:15:28;;;;;;;;;;;;;;;10.73;99.34;100445.22;7362480;19;19918;-68
2022/12/24 05:17:57;;;;;;;;;;;;;;;10.70;98.88;100444.72;7360171;19;19915;-67
2022/12/24 05:20:23;;;;;;;;;;;;;;;10.70;99.04;100450.81;7359516;19;21395;-67
2022/12/24 05:27:51;;;;;;;;;;;;;;;10.68;99.06;100460.66;7359599;19;19919;-68
2022/12/24 05:30:18;;;;;;;;;;;;;;;10.71;99.23;100472.69;7361145;19;19915;-68
2022/12/24 05:32:45;;;;;;;;;;;;;;;10.70;99.32;100463.13;7358818;19;19927;-68
2022/12/24 05:35:12;;;;;;;;;;;;;;;10.71;99.27;100464.78;7358901;19;19923;-66
2022/12/24 05:37:39;;;;;;;;;;;;;;;10.69;99.16;100467.56;7361911;19;20227;-67
2022/12/24 05:40:07;;;;;;;;;;;;;;;10.67;98.39;100463.44;7361089;19;20613;-67
2022/12/24 05:42:33;;;;;;;;;;;;;;;10.67;97.98;100466.06;7358673;19;20019;-67
2022/12/24 05:45:00;;;;;;;;;;;;;;;10.64;97.79;100461.16;7362192;19;19931;-66
2022/12/24 05:47:27;;;;;;;;;;;;;;;10.64;97.84;100464.59;7360231;19;20185;-69
2022/12/24 05:49:54;;;;;;;;;;;;;;;10.61;97.64;100470.22;7359017;19;19941;-68
2022/12/24 05:52:21;;;;;;;;;;;;;;;10.59;98.06;100474.78;7359418;19;19922;-68
2022/12/24 05:54:48;;;;;;;;;;;;;;;10.59;98.55;100477.41;7362083;19;19923;-68
2022/12/24 05:57:15;;;;;;;;;;;;;;;10.59;98.55;100487.13;7362312;19;19926;-67
2022/12/24 05:59:42;;;;;;;;;;;;;;;10.57;98.60;100484.63;7362712;19;19919;-67
2022/12/24 06:02:09;;;;;;;;;;;;;;;10.52;98.50;100507.97;7353684;19;19929;-67
2022/12/24 06:04:36;;;;;;;;;;;;;;;10.52;98.38;100507.97;7361319;19;19931;-69
2022/12/24 06:07:03;;;;;;;;;;;;;;;10.50;98.60;100509.97;7357371;19;19933;-66
2022/12/24 06:09:30;;;;;;;;;;;;;;;10.51;98.67;100508.16;7358201;19;20260;-67
2022/12/24 06:11:57;;;;;;;;;;;;;;;10.50;98.34;100503.88;7358918;19;19923;-67
2022/12/24 06:14:24;;;;;;;;;;;;;;;10.50;98.09;100506.50;7359836;19;20341;-67
2022/12/24 06:16:51;;;;;;;;;;;;;;;10.49;98.18;100508.31;7357731;19;19919;-67
2022/12/24 06:19:18;;;;;;;;;;;;;;;10.50;98.47;100512.59;7357922;19;20367;-67
2022/12/24 06:21:45;;;;;;;;;;;;;;;10.50;98.45;100517.03;7356436;19;19927;-67
2022/12/24 06:24:12;;;;;;;;;;;;;;;10.48;98.45;100513.72;7359081;19;19937;-67
2022/12/24 06:26:38;;;;;;;;;;;;;;;10.46;98.42;100519.16;7358692;19;19922;-67
2022/12/24 06:29:05;;;;;;;;;;;;;;;10.45;98.51;100508.78;7358570;19;19919;-68
2022/12/24 06:31:32;;;;;;;;;;;;;;;10.43;98.41;100524.72;7358734;19;20317;-66
2022/12/24 06:33:59;;;;;;;;;;;;;;;10.41;97.81;100521.44;7356482;19;19990;-67
2022/12/24 06:36:26;;;;;;;;;;;;;;;10.38;97.53;100526.19;7357418;19;19922;-67
2022/12/24 06:38:53;;;;;;;;;;;;;;;10.37;97.28;100527.97;7358325;19;19922;-67
2022/12/24 06:41:21;;;;;;;;;;;;;;;10.36;97.25;100530.78;7358920;19;19928;-68
2022/12/24 06:43:49;;;;;;;;;;;;;;;10.32;97.21;100530.25;7358588;19;20191;-68
2022/12/24 06:46:17;;;;;;;;;;;;;;;10.29;97.75;100531.41;7360625;19;19952;-68
2022/12/24 06:48:45;;;;;;;;;;;;;;;10.30;97.83;100534.88;7357020;19;19933;-67
2022/12/24 06:51:15;;;;;;;;;;;;;;;10.27;97.65;100543.88;7355435;19;20636;-67
2022/12/24 06:53:42;;;;;;;;;;;;;;;10.27;97.57;100550.94;7358737;19;19919;-68
2022/12/24 06:56:10;;;;;;;;;;;;;;;10.24;97.39;100546.03;7360030;19;20119;-67
2022/12/24 06:58:38;;;;;;;;;;;;;;;10.20;97.77;100552.56;7357977;19;19923;-68
2022/12/24 07:01:06;;;;;;;;;;;;;;;10.21;98.56;100562.09;7357928;19;20277;-68
2022/12/24 07:03:33;;;;;;;;;;;;;;;10.21;98.41;100568.19;7359722;19;19929;-68
2022/12/24 07:06:00;;;;;;;;;;;;;;;10.20;98.74;100577.06;7355607;19;20606;-67
2022/12/24 07:08:27;;;;;;;;;;;;;;;10.22;99.15;100575.09;7359128;19;19922;-67
2022/12/24 07:10:54;;;;;;;;;;;;;;;10.24;99.47;100581.03;7358568;19;20718;-67
2022/12/24 07:13:20;;;;;;;;;;;;;;;10.24;99.18;100577.56;7359338;19;19933;-67
2022/12/24 07:15:55;;;;;;;;;;;;;;;10.22;98.64;100584.78;7355212;19;20593;-66
2022/12/24 07:18:22;;;;;;;;;;;;;;;10.19;98.75;100590.38;7356096;19;19955;-67
2022/12/24 07:20:49;;;;;;;;;;;;;;;10.16;98.37;100585.41;7354731;19;19930;-67
2022/12/24 07:23:16;;;;;;;;;;;;;;;10.14;98.19;100582.91;7354253;19;19914;-67
2022/12/24 07:25:43;;;;;;;;;;;;;;;10.12;98.52;100579.59;7358081;19;19926;-67
2022/12/24 07:28:10;;;;;;;;;;;;;;;10.09;98.44;100587.81;7356326;19;19931;-67
2022/12/24 07:30:37;;;;;;;;;;;;;;;10.09;98.93;100587.81;7356268;19;19926;-67
2022/12/24 07:33:04;;;;;;;;;;;;;;;10.08;98.96;100578.28;7355347;19;19942;-67
2022/12/24 07:35:31;;;;;;;;;;;;;;;10.09;99.03;100589.63;7355495;19;20450;-68
2022/12/24 07:37:58;;;;;;;;;;;;;;;10.07;98.98;100594.19;7353811;19;19982;-67
2022/12/24 07:40:25;;;;;;;;;;;;;;;10.10;99.59;100602.63;7357536;19;19922;-67
2022/12/24 07:42:56;;;;;;;;;;;;;;;10.09;99.59;100605.38;7350585;19;20159;-68
2022/12/24 07:45:23;;;;;;;;;;;;;;;10.07;99.60;100602.06;7355590;19;19915;-67
2022/12/24 07:47:50;;;;;;;;;;;;;;;10.07;99.73;100605.53;7356508;19;19918;-67
2022/12/24 07:50:17;;;;;;;;;;;;;;;10.09;99.99;100611.47;7356396;19;19929;-68
2022/12/24 07:52:44;;;;;;;;;;;;;;;10.09;100.00;100619.34;7356891;19;20587;-68
2022/12/24 07:55:11;;;;;;;;;;;;;;;10.09;99.76;100613.28;7356872;19;20029;-67
2022/12/24 07:57:38;;;;;;;;;;;;;;;10.07;99.07;100609.97;7358826;19;19931;-68
2022/12/24 08:00:05;;;;;;;;;;;;;;;10.05;98.72;100614.56;7355100;19;19933;-68
2022/12/24 08:02:32;;;;;;;;;;;;;;;10.04;98.60;100621.63;7353888;19;20407;-67
2022/12/24 08:04:59;;;;;;;;;;;;;;;10.04;99.03;100621.63;7354088;19;19923;-67
2022/12/24 08:07:26;;;;;;;;;;;;;;;10.03;99.07;100611.25;7354137;19;19930;-67
2022/12/24 08:09:53;;;;;;;;;;;;;;;10.04;99.15;100618.16;7354413;19;21573;-67
2022/12/24 08:12:20;;;;;;;;;;;;;;;10.03;98.62;100632.28;7356504;19;19987;-67
2022/12/24 08:14:47;;;;;;;;;;;;;;;10.01;98.51;100632.44;7356967;19;19921;-68
2022/12/24 08:17:13;;;;;;;;;;;;;;;10.00;98.84;100641.31;7355588;19;19927;-68
2022/12/24 08:19:40;;;;;;;;;;;;;;;10.00;98.66;100625.53;7353571;19;19945;-67
2022/12/24 08:22:07;;;;;;;;;;;;;;;10.00;98.66;100635.22;7351084;19;19926;-67
2022/12/24 08:24:36;;;;;;;;;;;;;;;9.98;98.54;100629.28;7357309;19;19926;-68
2022/12/24 08:27:03;;;;;;;;;;;;;;;9.97;98.63;100638.16;7355231;19;19914;-68
2022/12/24 08:29:30;;;;;;;;;;;;;;;9.99;98.75;100639.66;7353375;19;19926;-67
2022/12/24 08:31:56;;;;;;;;;;;;;;;10.01;98.44;100634.22;7356501;19;19919;-68
2022/12/24 08:34:23;;;;;;;;;;;;;;;10.02;98.43;100647.22;7357207;19;19922;-68
2022/12/24 08:36:50;;;;;;;;;;;;;;;10.06;98.23;100639.84;7353843;19;19921;-68
2022/12/24 08:39:18;;;;;;;;;;;;;;;10.08;98.02;100649.25;7357283;19;19915;-67
2022/12/24 08:41:45;;;;;;;;;;;;;;;10.10;98.05;100651.72;7352698;19;20311;-66
2022/12/24 08:44:12;;;;;;;;;;;;;;;10.10;97.80;100668.34;7356206;19;21732;-67
2022/12/24 08:46:39;;;;;;;;;;;;;;;10.11;97.61;100667.31;7355253;19;21752;-68
2022/12/24 08:49:05;;;;;;;;;;;;;;;10.13;97.70;100677.69;7354929;19;19931;-67
2022/12/24 08:51:32;;;;;;;;;;;;;;;10.10;97.12;100678.84;7350817;19;20532;-67
2022/12/24 08:53:59;;;;;;;;;;;;;;;10.14;97.59;100664.41;7356295;19;20375;-67
2022/12/24 08:56:26;;;;;;;;;;;;;;;10.13;97.28;100668.00;7351986;19;20396;-68
2022/12/24 08:58:53;;;;;;;;;;;;;;;10.11;96.95;100664.69;7354091;19;19914;-68
2022/12/24 09:01:20;;;;;;;;;;;;;;;10.12;96.98;100660.28;7353101;19;19926;-66
2022/12/24 09:03:47;;;;;;;;;;;;;;;10.15;96.83;100657.34;7351745;19;19923;-66
2022/12/24 09:06:14;;;;;;;;;;;;;;;10.15;97.03;100652.09;7351227;19;19943;-67
2022/12/24 09:08:42;;;;;;;;;;;;;;;10.12;96.81;100668.97;7354266;19;19925;-67
2022/12/24 09:11:10;;;;;;;;;;;;;;;10.10;96.71;100659.63;7354786;19;19919;-67
2022/12/24 09:13:37;;;;;;;;;;;;;;;10.05;96.60;100667.13;7352529;19;19923;-69
2022/12/24 09:16:05;;;;;;;;;;;;;;;10.04;96.65;100666.31;7353220;19;20345;-68
2022/12/24 09:18:32;;;;;;;;;;;;;;;10.07;97.19;100665.16;7353061;19;20510;-69
2022/12/24 09:21:01;;;;;;;;;;;;;;;10.08;97.46;100677.34;7352356;19;19942;-67
2022/12/24 09:23:28;;;;;;;;;;;;;;;10.08;97.54;100665.03;7350690;19;19939;-67
2022/12/24 09:25:55;;;;;;;;;;;;;;;10.11;97.82;100662.06;7352834;19;19927;-69
2022/12/24 09:28:22;;;;;;;;;;;;;;;10.10;97.62;100643.84;7351509;19;20572;-68
2022/12/24 09:30:52;;;;;;;;;;;;;;;10.09;98.21;100655.34;7351642;19;20328;-67
2022/12/24 09:33:19;;;;;;;;;;;;;;;10.10;98.47;100664.88;7352698;19;19927;-69
2022/12/24 09:35:46;;;;;;;;;;;;;;;10.11;97.72;100661.25;7352580;19;19923;-68
2022/12/24 09:38:13;;;;;;;;;;;;;;;10.15;98.32;100655.53;7353627;19;19923;-68
2022/12/24 09:40:40;;;;;;;;;;;;;;;10.19;98.83;100650.84;7353042;19;19923;-68
2022/12/24 09:43:17;;;;;;;;;;;;;;;10.22;98.61;100645.25;7350490;19;20131;-67
2022/12/24 09:45:48;;;;;;;;;;;;;;;10.26;98.03;100654.47;7351794;19;19922;-67
2022/12/24 09:48:17;;;;;;;;;;;;;;;10.29;97.92;100662.06;7351503;19;19918;-68
2022/12/24 09:50:47;;;;;;;;;;;;;;;10.33;97.54;100671.28;7352629;19;19933;-68
2022/12/24 09:53:19;;;;;;;;;;;;;;;10.36;97.34;100681.53;7350720;19;20312;-67
2022/12/24 09:55:50;;;;;;;;;;;;;;;10.38;97.04;100683.97;7355671;19;19942;-68
2022/12/24 09:58:20;;;;;;;;;;;;;;;10.41;97.02;100681.06;7351935;19;19922;-67
2022/12/24 10:00:48;;;;;;;;;;;;;;;10.47;97.26;100685.66;7359010;19;19918;-67
2022/12/24 10:03:16;;;;;;;;;;;;;;;10.50;96.83;100686.19;7356750;19;20378;-68
2022/12/24 10:05:46;;;;;;;;;;;;;;;10.56;96.49;100690.00;7357931;19;19922;-68
2022/12/24 10:08:16;;;;;;;;;;;;;;;10.58;96.14;100690.66;7357464;19;20550;-68
2022/12/24 10:10:50;;;;;;;;;;;;;;;10.59;95.39;100693.16;7359696;19;19951;-68
2022/12/24 10:13:25;;;;;;;;;;;;;;;10.60;95.42;100688.72;7357916;19;19925;-68
2022/12/24 10:15:54;;;;;;;;;;;;;;;10.64;94.97;100684.78;7358861;19;19929;-68
2022/12/24 10:18:24;;;;;;;;;;;;;;;10.66;94.95;100694.19;7358148;19;20257;-67
2022/12/24 10:20:53;;;;;;;;;;;;;;;10.70;95.01;100692.06;7359599;19;20277;-68
2022/12/24 10:23:22;;;;;;;;;;;;;;;10.73;95.01;100697.00;7356497;19;19914;-67
2022/12/24 10:25:51;;;;;;;;;;;;;;;10.76;94.49;100688.81;7358413;19;20474;-68
2022/12/24 10:28:21;;;;;;;;;;;;;;;10.79;94.25;100693.75;7359551;19;19945;-67
2022/12/24 10:30:48;;;;;;;;;;;;;;;10.83;94.79;100692.44;7357842;19;19933;-68
2022/12/24 10:33:18;;;;;;;;;;;;;;;10.85;94.73;100689.66;7355898;19;19942;-67
2022/12/24 10:35:48;;;;;;;;;;;;;;;10.88;94.05;100691.97;7355823;19;19935;-68
2022/12/24 10:38:15;;;;;;;;;;;;;;;10.91;93.77;100691.66;7358473;19;19922;-68
2022/12/24 10:40:43;;;;;;;;;;;;;;;10.95;94.03;100695.63;7359282;19;19926;-68
2022/12/24 10:43:13;;;;;;;;;;;;;;;10.97;93.57;100694.47;7358563;19;19919;-68
2022/12/24 10:45:43;;;;;;;;;;;;;;;10.98;93.45;100704.00;7359787;19;19939;-68
2022/12/24 10:48:13;;;;;;;;;;;;;;;10.99;93.40;100689.88;7360838;19;19931;-68
2022/12/24 10:50:47;;;;;;;;;;;;;;;11.01;93.57;100698.44;7359345;19;19930;-68
2022/12/24 10:53:17;;;;;;;;;;;;;;;11.03;93.20;100700.91;7358655;19;19919;-68
2022/12/24 10:55:46;;;;;;;;;;;;;;;11.05;93.65;100699.78;7360899;19;19933;-70
2022/12/24 10:58:16;;;;;;;;;;;;;;;11.10;93.93;100700.13;7359546;19;19959;-68
2022/12/24 11:00:46;;;;;;;;;;;;;;;11.13;93.77;100694.53;7357632;19;19926;-68
2022/12/24 11:03:16;;;;;;;;;;;;;;;11.14;93.17;100690.91;7356590;19;20027;-69
2022/12/24 11:05:43;;;;;;;;;;;;;;;11.18;92.91;100682.69;7356835;19;19986;-68
2022/12/24 11:08:11;;;;;;;;;;;;;;;11.23;92.78;100694.38;7355074;19;19922;-68
2022/12/24 11:10:41;;;;;;;;;;;;;;;11.25;92.41;100696.88;7356689;19;19929;-68
2022/12/24 11:13:11;;;;;;;;;;;;;;;11.28;92.28;100700.00;7358130;19;20229;-68
2022/12/24 11:16:00;;;;;;;;;;;;;;;11.30;91.99;100694.59;7358059;19;20053;-65
2022/12/24 11:18:27;;;;;;;;;;;;;;;11.32;92.14;100690.81;7355959;19;19922;-64
2022/12/24 11:20:58;;;;;;;;;;;;;;;11.35;92.30;100698.38;7353304;19;19919;-65
2022/12/24 11:23:26;;;;;;;;;;;;;;;11.35;92.35;100700.19;7354405;19;21984;-64
2022/12/24 11:25:53;;;;;;;;;;;;;;;11.36;91.77;100713.22;7358343;19;19919;-64
2022/12/24 11:28:23;;;;;;;;;;;;;;;11.38;91.48;100720.94;7356683;19;19930;-64
2022/12/24 11:30:53;;;;;;;;;;;;;;;11.40;91.50;100711.91;7357698;19;19930;-65
2022/12/24 11:33:21;;;;;;;;;;;;;;;11.44;91.48;100715.84;7357131;19;20757;-65
2022/12/24 11:35:50;;;;;;;;;;;;;;;11.46;91.71;100713.91;7354865;19;19930;-65
2022/12/24 11:38:20;;;;;;;;;;;;;;;11.50;91.42;100723.13;7357734;19;19922;-64
2022/12/24 11:40:48;;;;;;;;;;;;;;;11.52;91.45;100710.63;7355900;19;19931;-63
2022/12/24 11:43:18;;;;;;;;;;;;;;;11.55;90.55;100704.19;7354468;19;20555;-64
2022/12/24 11:45:48;;;;;;;;;;;;;;;11.60;90.46;100712.44;7355958;19;20204;-65
2022/12/24 11:48:18;;;;;;;;;;;;;;;11.65;90.34;100715.41;7353971;19;21598;-64
2022/12/24 11:50:54;;;;;;;;;;;;;;;11.68;90.09;100712.47;7355423;19;20566;-64
2022/12/24 11:53:24;;;;;;;;;;;;;;;11.70;89.84;100717.53;7353371;19;19919;-64
2022/12/24 11:55:54;;;;;;;;;;;;;;;11.72;90.32;100721.69;7357625;19;19914;-64
2022/12/24 11:58:23;;;;;;;;;;;;;;;11.72;89.52;100716.41;7353878;19;20335;-65
2022/12/24 12:00:51;;;;;;;;;;;;;;;11.75;89.54;100717.91;7356769;19;19926;-64
2022/12/24 12:03:21;;;;;;;;;;;;;;;11.74;89.24;100705.72;7352841;19;20804;-64
2022/12/24 12:05:48;;;;;;;;;;;;;;;11.76;89.44;100707.22;7352955;19;19978;-65
2022/12/24 12:08:17;;;;;;;;;;;;;;;11.79;89.70;100708.69;7354782;19;19922;-65
2022/12/24 12:10:45;;;;;;;;;;;;;;;11.83;90.42;100704.75;7355973;19;19945;-65
2022/12/24 12:13:14;;;;;;;;;;;;;;;11.86;90.51;100702.63;7353639;19;19946;-64
2022/12/24 12:15:43;;;;;;;;;;;;;;;11.89;90.92;100706.72;7356004;19;19930;-65
2022/12/24 12:18:13;;;;;;;;;;;;;;;11.92;91.17;100701.97;7356769;19;19959;-64
2022/12/24 12:20:43;;;;;;;;;;;;;;;11.95;91.37;100708.69;7355496;19;19926;-65
2022/12/24 12:23:14;;;;;;;;;;;;;;;11.97;91.45;100710.19;7350794;19;19923;-64
2022/12/24 12:25:44;;;;;;;;;;;;;;;11.96;91.14;100719.09;7353926;19;19927;-64
2022/12/24 12:28:14;;;;;;;;;;;;;;;11.94;91.01;100707.88;7355213;19;20485;-64
2022/12/24 12:30:42;;;;;;;;;;;;;;;11.96;91.63;100692.72;7354501;19;19919;-64
2022/12/24 12:33:09;;;;;;;;;;;;;;;11.99;92.05;100694.19;7353993;19;19929;-64
2022/12/24 12:35:38;;;;;;;;;;;;;;;12.01;92.03;100694.88;7351292;19;19937;-64
2022/12/24 12:38:08;;;;;;;;;;;;;;;12.01;92.74;100686.94;7351579;19;19937;-65
2022/12/24 12:40:38;;;;;;;;;;;;;;;12.00;92.63;100682.66;7354355;19;19918;-64
2022/12/24 12:43:08;;;;;;;;;;;;;;;12.00;92.93;100686.13;7352314;19;19919;-65
2022/12/24 12:45:43;;;;;;;;;;;;;;;11.98;93.31;100690.75;7355167;19;20402;-65
2022/12/24 12:48:13;;;;;;;;;;;;;;;11.99;93.10;100686.28;7353856;19;19923;-64
2022/12/24 12:50:47;;;;;;;;;;;;;;;11.96;93.11;100681.34;7350402;19;19925;-64